createdAt,value
2023-03-06T00:01:43.478Z,8.6
2023-03-06T00:04:45.402Z,11.1
2023-03-06T00:07:47.384Z,10.7
2023-03-06T00:10:49.322Z,8.6
2023-03-06T00:13:51.298Z,7.8
2023-03-06T00:16:53.273Z,7.7
2023-03-06T00:19:55.198Z,9.5
2023-03-06T00:22:57.179Z,8.8
2023-03-06T00:25:59.138Z,6.8
2023-03-06T00:29:01.114Z,9.6
2023-03-06T00:32:03.087Z,7.9
2023-03-06T00:35:05.046Z,7.8
2023-03-06T00:38:06.959Z,9.9
2023-03-06T00:41:08.927Z,7.5
2023-03-06T00:44:10.877Z,5.9
2023-03-06T00:47:12.859Z,6.9
2023-03-06T00:50:14.842Z,8.6
2023-03-06T00:53:16.785Z,8.7
2023-03-06T00:56:19.922Z,8
2023-03-06T00:59:20.748Z,8.5
2023-03-06T01:02:22.779Z,10.1
2023-03-06T01:05:24.636Z,9.6
2023-03-06T01:08:26.582Z,6.6
2023-03-06T01:11:28.583Z,7.3
2023-03-06T01:14:30.505Z,10.4
2023-03-06T01:17:32.493Z,7.4
2023-03-06T01:20:34.481Z,7.1
2023-03-06T01:23:36.432Z,7.5
2023-03-06T01:26:38.376Z,7.1
2023-03-06T01:29:40.322Z,9.9
2023-03-06T01:32:42.321Z,6.9
2023-03-06T01:35:44.306Z,6.2
2023-03-06T01:38:46.198Z,10
2023-03-06T01:41:48.154Z,8.8
2023-03-06T01:44:50.120Z,7.8
2023-03-06T01:47:52.100Z,6.2
2023-03-06T01:50:54.046Z,6.7
2023-03-06T01:53:56.076Z,7.7
2023-03-06T01:56:58.012Z,7.4
2023-03-06T01:59:59.980Z,5.8
2023-03-06T02:03:01.954Z,6.8
2023-03-06T02:06:03.873Z,7.2
2023-03-06T02:09:05.869Z,7.6
2023-03-06T02:12:07.790Z,7.8
2023-03-06T02:15:09.771Z,7.3
2023-03-06T02:18:11.782Z,8.3
2023-03-06T02:21:13.740Z,8.4
2023-03-06T02:24:15.704Z,8.3
2023-03-06T02:27:17.693Z,10.4
2023-03-06T02:30:19.623Z,9.7
2023-03-06T02:33:21.589Z,9.3
2023-03-06T02:36:23.529Z,11.5
2023-03-06T02:39:25.514Z,7.8
2023-03-06T02:42:27.500Z,9
2023-03-06T02:45:29.448Z,10.1
2023-03-06T02:48:31.447Z,8.2
2023-03-06T02:51:33.394Z,9.5
2023-03-06T02:54:35.331Z,10.1
2023-03-06T02:57:37.282Z,10.2
2023-03-06T03:00:40.148Z,10.3
2023-03-06T03:03:41.215Z,13.5
2023-03-06T03:06:43.173Z,9.5
2023-03-06T03:09:45.136Z,8.7
2023-03-06T03:12:47.135Z,9.5
2023-03-06T03:15:49.130Z,8.8
2023-03-06T03:18:51.068Z,7.2
2023-03-06T03:21:52.997Z,8.4
2023-03-06T03:24:55.027Z,9
2023-03-06T03:27:56.927Z,8.9
2023-03-06T03:30:58.909Z,8
2023-03-06T03:34:00.888Z,9.5
2023-03-06T03:37:02.798Z,10.7
2023-03-06T03:40:04.796Z,8.8
2023-03-06T03:43:06.716Z,7.5
2023-03-06T03:46:08.764Z,8.9
2023-03-06T03:49:10.815Z,7
2023-03-06T03:52:12.649Z,8.9
2023-03-06T03:55:14.604Z,8.3
2023-03-06T03:58:16.512Z,8.2
2023-03-06T04:01:18.478Z,10
2023-03-06T04:04:20.472Z,7.4
2023-03-06T04:07:22.409Z,7.8
2023-03-06T04:10:24.378Z,7
2023-03-06T04:13:26.307Z,8.6
2023-03-06T04:16:28.352Z,11.3
2023-03-06T04:19:30.310Z,7.6
2023-03-06T04:22:32.222Z,10.3
2023-03-06T04:25:34.190Z,8.1
2023-03-06T04:28:36.148Z,6.2
2023-03-06T04:31:38.158Z,7.4
2023-03-06T04:34:40.089Z,10
2023-03-06T04:37:42.000Z,8.9
2023-03-06T04:40:44.975Z,8
2023-03-06T04:43:45.920Z,9.3
2023-03-06T04:46:47.892Z,9.3
2023-03-06T04:49:49.868Z,9.7
2023-03-06T04:52:51.813Z,8.6
2023-03-06T04:55:53.761Z,8.9
2023-03-06T04:58:55.741Z,10.7
2023-03-06T05:01:57.730Z,10.4
2023-03-06T05:04:59.699Z,10.6
2023-03-06T05:08:01.686Z,10.8
2023-03-06T05:11:03.647Z,10.6
2023-03-06T05:14:05.596Z,10.2
2023-03-06T05:17:07.533Z,10.1
2023-03-06T05:20:09.550Z,11.1
2023-03-06T05:23:11.444Z,12.2
2023-03-06T05:26:13.474Z,11.1
2023-03-06T05:29:15.400Z,13.8
2023-03-06T05:32:17.375Z,10.2
2023-03-06T05:35:19.403Z,10.4
2023-03-06T05:38:21.292Z,10.6
2023-03-06T05:41:23.438Z,10
2023-03-06T05:44:25.196Z,10.3
2023-03-06T05:47:27.204Z,10
2023-03-06T05:50:29.132Z,10.8
2023-03-06T05:53:31.088Z,10
2023-03-06T05:56:33.094Z,11.9
2023-03-06T05:59:35.051Z,9.9
2023-03-06T06:02:37.016Z,12.4
2023-03-06T06:05:38.957Z,9.2
2023-03-06T06:08:40.915Z,9.2
2023-03-06T06:11:42.852Z,10
2023-03-06T06:14:44.852Z,12.2
2023-03-06T06:17:46.830Z,10.7
2023-03-06T06:20:48.806Z,10.1
2023-03-06T06:23:50.748Z,10.6
2023-03-06T06:26:52.696Z,11.2
2023-03-06T06:29:54.639Z,10.2
2023-03-06T06:32:56.635Z,11
2023-03-06T06:35:58.625Z,12.8
2023-03-06T06:39:00.602Z,10.2
2023-03-06T06:42:15.382Z,12.4
2023-03-06T06:45:04.486Z,9
2023-03-06T06:48:06.498Z,9.9
2023-03-06T06:51:08.409Z,9.7
2023-03-06T06:54:10.395Z,11.9
2023-03-06T06:57:12.347Z,11.7
2023-03-06T07:00:14.306Z,14.4
2023-03-06T07:03:16.597Z,11
2023-03-06T07:06:18.257Z,10.6
2023-03-06T07:09:20.216Z,10.8
2023-03-06T07:12:22.184Z,10.5
2023-03-06T07:15:24.125Z,12
2023-03-06T07:18:26.093Z,12.3
2023-03-06T07:21:28.107Z,14.3
2023-03-06T07:24:30.091Z,13.7
2023-03-06T07:27:32.083Z,21.6
2023-03-06T07:30:33.986Z,12.5
2023-03-06T07:33:35.940Z,11.2
2023-03-06T07:36:37.910Z,10.9
2023-03-06T07:39:39.879Z,13
2023-03-06T07:42:41.847Z,13.6
2023-03-06T07:45:43.800Z,12.4
2023-03-06T07:48:45.758Z,18.1
2023-03-06T07:51:47.719Z,16.3
2023-03-06T07:54:49.666Z,13
2023-03-06T07:57:51.660Z,16.8
2023-03-06T08:00:53.578Z,14.5
2023-03-06T08:03:55.586Z,14.4
2023-03-06T08:06:57.546Z,16
2023-03-06T08:09:59.465Z,13.6
2023-03-06T08:13:01.527Z,15.8
2023-03-06T08:16:03.417Z,13.6
2023-03-06T08:19:05.396Z,14.9
2023-03-06T08:22:07.363Z,16.2
2023-03-06T08:25:09.324Z,13.1
2023-03-06T08:28:11.240Z,15.1
2023-03-06T08:31:13.319Z,14
2023-03-06T08:34:15.177Z,12.2
2023-03-06T08:37:17.143Z,13.3
2023-03-06T08:40:19.080Z,12.3
2023-03-06T08:43:21.046Z,12
2023-03-06T08:46:23.005Z,14.2
2023-03-06T08:49:24.957Z,12.1
2023-03-06T08:52:27.015Z,14.4
2023-03-06T08:55:28.907Z,13.1
2023-03-06T08:58:30.909Z,12.7
2023-03-06T09:01:32.843Z,14.3
2023-03-06T09:04:34.749Z,15.4
2023-03-06T09:07:36.699Z,13.4
2023-03-06T09:10:38.739Z,15.3
2023-03-06T09:13:40.657Z,13.2
2023-03-06T09:16:42.677Z,12.2
2023-03-06T09:19:44.573Z,14.2
2023-03-06T09:22:46.554Z,12.4
2023-03-06T09:25:48.500Z,15.1
2023-03-06T09:28:50.511Z,15
2023-03-06T09:31:52.452Z,16.1
2023-03-06T09:34:54.405Z,14.2
2023-03-06T09:37:56.386Z,16.8
2023-03-06T09:40:58.352Z,16.4
2023-03-06T09:44:00.296Z,15
2023-03-06T09:47:02.275Z,12.8
2023-03-06T09:50:04.270Z,14.7
2023-03-06T09:53:06.202Z,14.1
2023-03-06T09:56:08.360Z,14.8
2023-03-06T09:59:10.120Z,15
2023-03-06T10:02:12.162Z,14.4
2023-03-06T10:05:14.072Z,12.9
2023-03-06T10:08:16.007Z,12.3
2023-03-06T10:11:17.970Z,13.2
2023-03-06T10:14:19.931Z,12.7
2023-03-06T10:17:21.922Z,12.2
2023-03-06T10:20:23.868Z,12.5
2023-03-06T10:23:25.811Z,15.3
2023-03-06T10:26:29.134Z,12.9
2023-03-06T10:29:29.768Z,14.1
2023-03-06T10:32:42.823Z,14.8
2023-03-06T10:35:33.753Z,15.8
2023-03-06T10:38:35.690Z,14.9
2023-03-06T10:41:37.623Z,13.2
2023-03-06T10:44:39.604Z,16.4
2023-03-06T10:47:41.564Z,17.4
2023-03-06T10:50:43.504Z,16.3
2023-03-06T10:53:45.482Z,12.7
2023-03-06T10:56:47.439Z,15.5
2023-03-06T10:59:49.413Z,16.1
2023-03-06T11:02:51.355Z,13.6
2023-03-06T11:05:53.318Z,15.9
2023-03-06T11:08:55.273Z,14.1
2023-03-06T11:11:57.225Z,13.5
2023-03-06T11:14:59.209Z,28.8
2023-03-06T11:18:01.158Z,18.6
2023-03-06T11:21:03.109Z,16.1
2023-03-06T11:24:05.111Z,13.4
2023-03-06T11:27:07.064Z,14
2023-03-06T11:30:09.024Z,13.7
2023-03-06T11:33:10.949Z,12.9
2023-03-06T11:36:12.895Z,11.9
2023-03-06T11:39:15.606Z,11.7
2023-03-06T11:42:16.850Z,12
2023-03-06T11:45:18.768Z,13.5
2023-03-06T11:48:20.743Z,11.4
2023-03-06T11:51:22.720Z,11.3
2023-03-06T11:54:24.653Z,11.1
2023-03-06T11:57:26.622Z,9.6
2023-03-06T12:00:28.600Z,11.4
2023-03-06T12:03:30.572Z,10
2023-03-06T12:06:32.558Z,12.1
2023-03-06T12:09:34.517Z,11.6
2023-03-06T12:12:36.448Z,13.3
2023-03-06T12:15:38.420Z,11.8
2023-03-06T12:18:40.394Z,11.5
2023-03-06T12:21:42.361Z,11.2
2023-03-06T12:24:44.320Z,11.5
2023-03-06T12:27:46.275Z,9.6
2023-03-06T12:30:48.259Z,12
2023-03-06T12:33:50.237Z,10.2
2023-03-06T12:36:52.162Z,10.8
2023-03-06T12:39:54.177Z,10.3
2023-03-06T12:42:56.114Z,8.9
2023-03-06T12:45:58.082Z,10.4
2023-03-06T12:49:00.028Z,8.7
2023-03-06T12:52:02.073Z,9.3
2023-03-06T12:55:03.948Z,10.6
2023-03-06T12:58:05.963Z,8.4
2023-03-06T13:01:08.026Z,9.1
2023-03-06T13:04:09.868Z,10.5
2023-03-06T13:07:11.850Z,10.4
2023-03-06T13:10:13.834Z,8.9
2023-03-06T13:13:15.741Z,9.5
2023-03-06T13:16:17.694Z,8.4
2023-03-06T13:19:19.647Z,10.1
2023-03-06T13:22:21.624Z,8.5
2023-03-06T13:25:23.584Z,9
2023-03-06T13:28:25.544Z,9.3
2023-03-06T13:31:28.163Z,9.3
2023-03-06T13:34:29.483Z,12.2
2023-03-06T13:37:31.470Z,10.3
2023-03-06T13:40:33.467Z,9.1
2023-03-06T13:43:35.442Z,12.8
2023-03-06T13:46:37.509Z,11.6
2023-03-06T13:49:39.302Z,12.8
2023-03-06T13:52:41.488Z,10.3
2023-03-06T13:55:43.221Z,11.3
2023-03-06T13:58:45.177Z,10
2023-03-06T14:01:47.207Z,12.4
2023-03-06T14:04:49.124Z,11.6
2023-03-06T14:07:51.075Z,11
2023-03-06T14:10:53.060Z,14.3
2023-03-06T14:13:54.991Z,11.4
2023-03-06T14:16:56.968Z,12.2
2023-03-06T14:19:58.911Z,11.5
2023-03-06T14:23:00.877Z,14.8
2023-03-06T14:26:02.832Z,11.6
2023-03-06T14:29:04.838Z,12.8
2023-03-06T14:32:06.812Z,12.6
2023-03-06T14:35:08.781Z,10.1
2023-03-06T14:38:10.779Z,10
2023-03-06T14:41:14.094Z,10.6
2023-03-06T14:44:14.667Z,12.6
2023-03-06T14:47:16.658Z,12.3
2023-03-06T14:50:18.587Z,9.6
2023-03-06T14:53:20.603Z,12.7
2023-03-06T14:56:22.769Z,13.3
2023-03-06T14:59:24.492Z,9.7
2023-03-06T15:02:26.648Z,13.5
2023-03-06T15:05:28.508Z,10.7
2023-03-06T15:08:30.428Z,11.4
2023-03-06T15:11:32.384Z,12.5
2023-03-06T15:14:34.393Z,13.2
2023-03-06T15:17:36.359Z,12.1
2023-03-06T15:20:38.291Z,14.6
2023-03-06T15:23:40.246Z,14.2
2023-03-06T15:26:42.229Z,12.6
2023-03-06T15:29:44.189Z,12.5
2023-03-06T15:32:46.144Z,11.9
2023-03-06T15:35:48.167Z,12.1
2023-03-06T15:38:50.092Z,13.1
2023-03-06T15:41:52.083Z,12
2023-03-06T15:44:54.029Z,13.3
2023-03-06T15:47:55.978Z,12.2
2023-03-06T15:50:57.971Z,12.7
2023-03-06T15:54:10.015Z,15.6
2023-03-06T15:57:01.865Z,12.8
2023-03-06T16:00:03.908Z,12.1
2023-03-06T16:03:05.814Z,11.4
2023-03-06T16:06:07.820Z,13
2023-03-06T16:09:09.742Z,10.8
2023-03-06T16:12:11.806Z,12.1
2023-03-06T16:15:13.705Z,11.8
2023-03-06T16:18:15.666Z,10.6
2023-03-06T16:21:17.611Z,12.4
2023-03-06T16:24:19.591Z,12.5
2023-03-06T16:27:21.527Z,11.4
2023-03-06T16:30:23.509Z,12.3
2023-03-06T16:33:25.462Z,13.6
2023-03-06T16:36:27.393Z,13.5
2023-03-06T16:39:29.365Z,13.3
2023-03-06T16:42:31.298Z,14.6
2023-03-06T16:45:33.295Z,13.8
2023-03-06T16:48:35.299Z,13.2
2023-03-06T16:51:37.428Z,12.4
2023-03-06T16:54:39.229Z,13.2
2023-03-06T16:57:41.151Z,12.5
2023-03-06T17:00:43.122Z,12.3
2023-03-06T17:03:45.066Z,16.6
2023-03-06T17:06:47.017Z,14.6
2023-03-06T17:09:48.985Z,11.4
2023-03-06T17:12:50.952Z,11.6
2023-03-06T17:15:52.967Z,13.9
2023-03-06T17:18:54.899Z,12.9
2023-03-06T17:21:56.832Z,11.3
2023-03-06T17:24:58.876Z,12.5
2023-03-06T17:28:00.838Z,10.9
2023-03-06T17:31:02.864Z,9.6
2023-03-06T17:34:04.747Z,11
2023-03-06T17:37:06.787Z,11.8
2023-03-06T17:40:08.663Z,11.4
2023-03-06T17:43:10.590Z,10.3
2023-03-06T17:46:12.665Z,9.6
2023-03-06T17:49:14.534Z,10.4
2023-03-06T17:52:16.550Z,10.5
2023-03-06T17:55:18.445Z,10.4
2023-03-06T17:58:20.407Z,10.3
2023-03-06T18:01:22.417Z,13.6
2023-03-06T18:04:24.334Z,9.2
2023-03-06T18:07:29.554Z,9.5
2023-03-06T18:10:31.626Z,10.2
2023-03-06T18:13:33.599Z,11.6
2023-03-06T18:16:35.603Z,12.4
2023-03-06T18:19:37.499Z,13
2023-03-06T18:22:39.469Z,11.4
2023-03-06T18:25:41.550Z,10.4
2023-03-06T18:28:43.413Z,12.1
2023-03-06T18:31:45.385Z,9.3
2023-03-06T18:34:47.367Z,12.2
2023-03-06T18:37:49.334Z,11
2023-03-06T18:40:51.287Z,9.4
2023-03-06T18:43:53.413Z,11.2
2023-03-06T18:46:55.192Z,12.4
2023-03-06T18:49:57.162Z,13.7
2023-03-06T18:52:59.106Z,13.2
2023-03-06T18:56:01.139Z,13.8
2023-03-06T18:59:03.113Z,13.8
2023-03-06T19:02:05.093Z,12.5
2023-03-06T19:05:07.033Z,11.7
2023-03-06T19:08:09.002Z,12.4
2023-03-06T19:11:10.976Z,13.5
2023-03-06T19:14:13.018Z,12.6
2023-03-06T19:17:14.982Z,15.8
2023-03-06T19:20:16.944Z,13.4
2023-03-06T19:23:18.870Z,13
2023-03-06T19:26:20.875Z,12.7
2023-03-06T19:29:22.794Z,14.3
2023-03-06T19:32:24.794Z,14.2
2023-03-06T19:35:26.764Z,14.4
2023-03-06T19:38:28.722Z,15.4
2023-03-06T19:41:30.711Z,15.5
2023-03-06T19:44:32.734Z,15.2
2023-03-06T19:47:34.661Z,17.2
2023-03-06T19:50:36.613Z,17.6
2023-03-06T19:53:38.556Z,17.1
2023-03-06T19:56:40.517Z,16.5
2023-03-06T19:59:42.465Z,16.1
2023-03-06T20:02:44.429Z,17.7
2023-03-06T20:05:46.412Z,16.9
2023-03-06T20:08:48.336Z,15.9
2023-03-06T20:11:50.307Z,19
2023-03-06T20:14:52.276Z,15.8
2023-03-06T20:17:56.466Z,17.4
2023-03-06T20:20:56.196Z,16.1
2023-03-06T20:23:58.190Z,18.7
2023-03-06T20:27:00.127Z,15.7
2023-03-06T20:30:02.231Z,17.9
2023-03-06T20:33:04.091Z,15.5
2023-03-06T20:36:06.138Z,18.2
2023-03-06T20:39:08.006Z,17.8
2023-03-06T20:42:09.984Z,19.6
2023-03-06T20:45:11.969Z,21.2
2023-03-06T20:48:13.881Z,21.3
2023-03-06T20:51:15.874Z,19.3
2023-03-06T20:54:17.827Z,20.8
2023-03-06T20:57:19.787Z,29.7
2023-03-06T21:00:21.743Z,23.4
2023-03-06T21:03:23.752Z,20.6
2023-03-06T21:06:25.724Z,22.9
2023-03-06T21:09:27.658Z,20.8
2023-03-06T21:12:29.611Z,21
2023-03-06T21:15:31.564Z,21.6
2023-03-06T21:18:33.517Z,21
2023-03-06T21:21:35.508Z,20.8
2023-03-06T21:24:37.458Z,20.6
2023-03-06T21:27:39.417Z,21.8
2023-03-06T21:30:41.391Z,19.2
2023-03-06T21:33:43.322Z,21.6
2023-03-06T21:36:45.290Z,20.6
2023-03-06T21:39:47.245Z,23.2
2023-03-06T21:42:49.204Z,21.2
2023-03-06T21:45:51.172Z,26.1
2023-03-06T21:48:53.222Z,23.2
2023-03-06T21:51:55.078Z,21.9
2023-03-06T21:54:57.040Z,20.1
2023-03-06T21:57:59.024Z,22.8
2023-03-06T22:01:01.035Z,23.2
2023-03-06T22:04:03.001Z,23.9
2023-03-06T22:07:04.884Z,23.1
2023-03-06T22:10:06.964Z,24
2023-03-06T22:13:08.864Z,19.2
2023-03-06T22:16:10.809Z,21.7
2023-03-06T22:19:12.802Z,21.3
2023-03-06T22:22:14.779Z,24.3
2023-03-06T22:25:16.739Z,20.3
2023-03-06T22:28:18.673Z,18.8
2023-03-06T22:31:20.711Z,20.3
2023-03-06T22:34:22.619Z,22.1
2023-03-06T22:37:24.587Z,27.2
2023-03-06T22:40:26.539Z,25.5
2023-03-06T22:43:28.480Z,25.8
2023-03-06T22:46:30.460Z,26.3
2023-03-06T22:49:32.420Z,24.9
2023-03-06T22:52:34.384Z,27.4
2023-03-06T22:55:36.354Z,33.1
2023-03-06T22:58:38.308Z,24.5
2023-03-06T23:01:40.358Z,23.5
2023-03-06T23:04:42.330Z,25.8
2023-03-06T23:07:44.229Z,26.4
2023-03-06T23:10:46.160Z,29
2023-03-06T23:13:48.144Z,29
2023-03-06T23:16:50.119Z,25
2023-03-06T23:19:52.093Z,25
2023-03-06T23:22:54.039Z,26.5
2023-03-06T23:25:56.003Z,30.3
2023-03-06T23:28:58.036Z,27.8
2023-03-06T23:31:59.941Z,28.3
2023-03-06T23:35:01.915Z,30.5
2023-03-06T23:38:03.871Z,30.6
2023-03-06T23:41:05.869Z,24.1
2023-03-06T23:44:07.815Z,28.9
2023-03-06T23:47:10.031Z,31.5
2023-03-06T23:50:11.750Z,31.1
2023-03-06T23:53:13.718Z,33.1
2023-03-06T23:56:15.651Z,34.6
2023-03-06T23:59:17.638Z,33.7
